createdAt,value
2023-08-11T00:00:05.724Z,15.14
2023-08-11T00:02:39.753Z,15.13
2023-08-11T00:05:09.234Z,15.15
2023-08-11T00:07:37.517Z,15.16
2023-08-11T00:10:06.891Z,15.13
2023-08-11T00:12:36.433Z,15.11
2023-08-11T00:15:04.839Z,15.06
2023-08-11T00:17:33.216Z,15.02
2023-08-11T00:20:01.896Z,15.02
2023-08-11T00:22:29.799Z,15.05
2023-08-11T00:24:57.796Z,14.97
2023-08-11T00:27:25.741Z,14.96
2023-08-11T00:29:57.354Z,14.95
2023-08-11T00:32:25.533Z,14.90
2023-08-11T00:34:53.484Z,14.93
2023-08-11T00:37:21.662Z,14.90
2023-08-11T00:39:51.728Z,14.89
2023-08-11T00:42:19.757Z,14.84
2023-08-11T00:44:47.637Z,14.77
2023-08-11T00:47:17.488Z,14.78
2023-08-11T00:49:45.383Z,14.82
2023-08-11T00:52:13.759Z,14.80
2023-08-11T00:54:42.257Z,14.83
2023-08-11T00:57:10.860Z,14.74
2023-08-11T00:59:38.871Z,14.72
2023-08-11T01:02:07.989Z,14.69
2023-08-11T01:04:38.397Z,14.67
2023-08-11T01:07:14.238Z,14.66
2023-08-11T01:09:45.160Z,14.62
2023-08-11T01:12:18.497Z,14.62
2023-08-11T01:14:51.774Z,14.63
2023-08-11T01:17:20.177Z,14.59
2023-08-11T01:19:50.501Z,14.63
2023-08-11T01:22:21.999Z,14.60
2023-08-11T01:24:51.488Z,14.57
2023-08-11T01:27:19.435Z,14.54
2023-08-11T01:29:47.448Z,14.53
2023-08-11T01:32:17.145Z,14.51
2023-08-11T01:34:45.056Z,14.46
2023-08-11T01:37:13.470Z,14.46
2023-08-11T01:39:42.584Z,14.46
2023-08-11T01:42:11.937Z,14.44
2023-08-11T01:44:40.123Z,14.41
2023-08-11T01:47:08.650Z,14.43
2023-08-11T01:49:36.847Z,14.45
2023-08-11T01:52:05.388Z,14.41
2023-08-11T01:54:33.650Z,14.36
2023-08-11T01:57:02.057Z,14.33
2023-08-11T01:59:32.019Z,14.36
2023-08-11T02:02:00.103Z,14.34
2023-08-11T02:04:29.568Z,14.40
2023-08-11T02:06:57.490Z,14.44
2023-08-11T02:09:25.389Z,14.46
2023-08-11T02:11:53.349Z,14.40
2023-08-11T02:14:21.398Z,14.39
2023-08-11T02:16:51.134Z,14.44
2023-08-11T02:19:19.109Z,14.46
2023-08-11T02:21:47.139Z,14.46
2023-08-11T02:24:16.933Z,14.48
2023-08-11T02:26:45.776Z,14.47
2023-08-11T02:29:13.674Z,14.52
2023-08-11T02:31:41.654Z,14.54
2023-08-11T02:34:11.094Z,14.63
2023-08-11T02:36:39.054Z,14.62
2023-08-11T02:39:07.175Z,14.59
2023-08-11T02:41:35.754Z,14.64
2023-08-11T02:44:05.057Z,14.67
2023-08-11T02:46:33.456Z,14.77
2023-08-11T02:49:01.352Z,14.73
2023-08-11T02:51:30.661Z,14.75
2023-08-11T02:53:58.733Z,14.78
2023-08-11T02:56:26.819Z,14.74
2023-08-11T02:58:57.835Z,14.82
2023-08-11T03:01:26.132Z,14.82
2023-08-11T03:03:54.207Z,14.78
2023-08-11T03:06:23.364Z,14.77
2023-08-11T03:08:53.446Z,14.77
2023-08-11T03:11:21.394Z,14.82
2023-08-11T03:13:49.379Z,14.79
2023-08-11T03:16:17.469Z,14.85
2023-08-11T03:18:45.391Z,14.88
2023-08-11T03:21:19.816Z,14.91
2023-08-11T03:23:50.285Z,14.86
2023-08-11T03:26:21.406Z,14.84
2023-08-11T03:28:49.707Z,14.90
2023-08-11T03:31:17.986Z,14.86
2023-08-11T03:33:49.234Z,14.87
2023-08-11T03:36:17.291Z,14.88
2023-08-11T03:38:46.632Z,14.81
2023-08-11T03:41:14.753Z,14.94
2023-08-11T03:43:44.936Z,14.88
2023-08-11T03:46:12.926Z,14.89
2023-08-11T03:48:41.052Z,14.87
2023-08-11T03:51:09.157Z,14.87
2023-08-11T03:53:37.803Z,14.88
2023-08-11T03:56:08.605Z,14.88
2023-08-11T03:58:39.732Z,14.96
2023-08-11T04:01:09.053Z,14.95
2023-08-11T04:03:37.437Z,14.99
2023-08-11T04:06:05.824Z,15.00
2023-08-11T04:08:34.821Z,14.99
2023-08-11T04:11:02.881Z,15.03
2023-08-11T04:13:30.944Z,15.03
2023-08-11T04:16:00.299Z,15.08
2023-08-11T04:18:29.709Z,15.10
2023-08-11T04:20:57.642Z,15.15
2023-08-11T04:23:25.721Z,15.16
2023-08-11T04:25:55.036Z,15.28
2023-08-11T04:28:23.797Z,15.27
2023-08-11T04:30:51.700Z,15.29
2023-08-11T04:33:20.150Z,15.32
2023-08-11T04:35:50.788Z,15.35
2023-08-11T04:38:19.347Z,15.31
2023-08-11T04:40:50.719Z,15.33
2023-08-11T04:43:20.054Z,15.32
2023-08-11T04:45:48.628Z,15.33
2023-08-11T04:48:18.587Z,15.28
2023-08-11T04:50:53.193Z,15.35
2023-08-11T04:53:22.298Z,15.42
2023-08-11T04:55:50.446Z,15.56
2023-08-11T04:58:18.446Z,15.66
2023-08-11T05:00:46.528Z,15.67
2023-08-11T05:03:14.497Z,15.79
2023-08-11T05:05:42.638Z,15.92
2023-08-11T05:08:11.976Z,15.94
2023-08-11T05:10:39.915Z,15.83
2023-08-11T05:13:07.925Z,15.83
2023-08-11T05:15:36.192Z,15.71
2023-08-11T05:18:05.236Z,15.75
2023-08-11T05:20:33.419Z,15.74
2023-08-11T05:23:01.383Z,15.80
2023-08-11T05:25:30.681Z,15.90
2023-08-11T05:27:58.671Z,15.98
2023-08-11T05:30:27.364Z,16.16
2023-08-11T05:32:55.672Z,16.34
2023-08-11T05:35:23.668Z,16.63
2023-08-11T05:37:51.652Z,16.64
2023-08-11T05:40:20.160Z,16.82
2023-08-11T05:42:49.417Z,16.91
2023-08-11T05:45:18.552Z,17.11
2023-08-11T05:47:46.743Z,17.39
2023-08-11T05:50:14.749Z,17.59
2023-08-11T05:52:42.789Z,17.68
2023-08-11T05:55:11.022Z,17.72
2023-08-11T05:57:39.036Z,17.80
2023-08-11T06:00:10.090Z,17.94
2023-08-11T06:02:41.080Z,18.00
2023-08-11T06:05:09.868Z,18.01
2023-08-11T06:07:38.935Z,18.01
2023-08-11T06:10:08.746Z,18.14
2023-08-11T06:12:37.023Z,18.16
2023-08-11T06:15:05.821Z,18.26
2023-08-11T06:17:35.119Z,18.39
2023-08-11T06:20:03.427Z,18.79
2023-08-11T06:22:31.293Z,18.80
2023-08-11T06:24:59.777Z,18.87
2023-08-11T06:27:28.284Z,18.61
2023-08-11T06:29:56.227Z,18.72
2023-08-11T06:32:24.136Z,19.40
2023-08-11T06:34:53.504Z,19.28
2023-08-11T06:37:21.739Z,19.48
2023-08-11T06:39:49.667Z,19.89
2023-08-11T06:42:17.827Z,19.41
2023-08-11T06:44:56.322Z,19.75
2023-08-11T06:47:24.904Z,19.73
2023-08-11T06:49:54.392Z,19.96
2023-08-11T06:52:22.243Z,20.20
2023-08-11T06:54:50.240Z,20.24
2023-08-11T06:57:21.503Z,20.22
2023-08-11T06:59:49.734Z,20.43
2023-08-11T07:02:17.695Z,20.43
2023-08-11T07:04:45.888Z,20.29
2023-08-11T07:07:15.156Z,20.37
2023-08-11T07:09:43.069Z,20.11
2023-08-11T07:12:11.007Z,19.88
2023-08-11T07:14:38.954Z,20.11
2023-08-11T07:17:07.127Z,19.72
2023-08-11T07:19:35.241Z,19.86
2023-08-11T07:22:03.213Z,20.02
2023-08-11T07:24:32.544Z,19.95
2023-08-11T07:27:00.421Z,20.05
2023-08-11T07:29:28.334Z,19.62
2023-08-11T07:31:58.835Z,20.07
2023-08-11T07:34:27.110Z,20.52
2023-08-11T07:36:55.033Z,20.69
2023-08-11T07:39:24.269Z,20.81
2023-08-11T07:41:53.729Z,21.40
2023-08-11T07:44:21.806Z,21.47
2023-08-11T07:46:49.837Z,21.76
2023-08-11T07:49:17.935Z,21.44
2023-08-11T07:51:46.019Z,22.44
2023-08-11T07:54:14.925Z,22.52
2023-08-11T07:56:42.936Z,22.03
2023-08-11T07:59:12.386Z,22.52
2023-08-11T08:01:40.541Z,23.71
2023-08-11T08:04:08.618Z,24.18
2023-08-11T08:06:44.160Z,24.65
2023-08-11T08:09:12.877Z,25.05
2023-08-11T08:11:40.850Z,24.58
2023-08-11T08:14:08.755Z,25.39
2023-08-11T08:16:38.162Z,27.10
2023-08-11T08:19:07.190Z,27.55
2023-08-11T08:21:35.221Z,29.16
2023-08-11T08:24:05.327Z,31.16
2023-08-11T08:26:33.714Z,32.33
2023-08-11T08:29:02.150Z,31.05
2023-08-11T08:31:30.542Z,31.50
2023-08-11T08:33:59.870Z,33.75
2023-08-11T08:36:28.185Z,34.57
2023-08-11T08:38:56.160Z,34.18
2023-08-11T08:41:29.358Z,35.78
2023-08-11T08:43:57.905Z,35.36
2023-08-11T08:46:29.036Z,36.39
2023-08-11T08:49:06.593Z,33.34
2023-08-11T08:51:35.849Z,33.86
2023-08-11T08:54:03.748Z,32.21
2023-08-11T08:56:31.720Z,33.88
2023-08-11T08:58:59.854Z,35.88
2023-08-11T09:01:28.072Z,35.69
2023-08-11T09:03:57.053Z,35.92
2023-08-11T09:06:27.597Z,35.43
2023-08-11T09:08:55.624Z,34.60
2023-08-11T09:11:24.643Z,35.98
2023-08-11T09:13:52.521Z,36.20
2023-08-11T09:16:24.267Z,35.72
2023-08-11T09:18:52.356Z,34.78
2023-08-11T09:21:24.213Z,34.82
2023-08-11T09:23:55.436Z,34.02
2023-08-11T09:26:23.686Z,33.85
2023-08-11T09:28:52.095Z,32.96
2023-08-11T09:31:25.209Z,34.38
2023-08-11T09:33:54.013Z,34.17
2023-08-11T09:36:22.309Z,33.61
2023-08-11T09:38:51.156Z,33.65
2023-08-11T09:41:20.457Z,33.90
2023-08-11T09:43:49.646Z,32.78
2023-08-11T09:46:25.996Z,31.79
2023-08-11T09:48:55.750Z,30.12
2023-08-11T09:51:23.644Z,31.06
2023-08-11T09:53:51.884Z,30.44
2023-08-11T09:56:23.051Z,29.21
2023-08-11T09:58:53.628Z,28.57
2023-08-11T10:01:22.292Z,27.64
2023-08-11T10:03:50.727Z,28.23
2023-08-11T10:06:22.077Z,28.12
2023-08-11T10:08:51.589Z,28.62
2023-08-11T10:11:22.375Z,28.60
2023-08-11T10:13:50.658Z,28.32
2023-08-11T10:16:18.986Z,27.72
2023-08-11T10:18:47.072Z,26.58
2023-08-11T10:21:15.216Z,28.88
2023-08-11T10:23:43.140Z,30.75
2023-08-11T10:26:11.468Z,32.47
2023-08-11T10:28:40.912Z,30.70
2023-08-11T10:31:08.927Z,30.61
2023-08-11T10:33:36.846Z,29.61
2023-08-11T10:36:05.149Z,29.78
2023-08-11T10:38:34.846Z,30.24
2023-08-11T10:41:03.024Z,30.62
2023-08-11T10:43:33.460Z,31.41
2023-08-11T10:46:24.026Z,31.23
2023-08-11T10:48:52.541Z,31.27
2023-08-11T10:51:35.762Z,31.32
2023-08-11T10:54:10.805Z,30.40
2023-08-11T10:56:40.107Z,30.64
2023-08-11T10:59:15.400Z,29.05
2023-08-11T11:01:47.448Z,30.36
2023-08-11T11:04:15.971Z,30.99
2023-08-11T11:06:45.962Z,30.53
2023-08-11T11:09:14.824Z,31.47
2023-08-11T11:11:45.696Z,31.53
2023-08-11T11:14:14.811Z,31.09
2023-08-11T11:16:44.159Z,30.39
2023-08-11T11:19:12.286Z,29.71
2023-08-11T11:21:41.262Z,29.74
2023-08-11T11:24:10.057Z,28.61
2023-08-11T11:26:38.416Z,28.55
2023-08-11T11:29:07.551Z,27.10
2023-08-11T11:31:37.107Z,27.21
2023-08-11T11:34:07.143Z,26.91
2023-08-11T11:36:35.387Z,26.92
2023-08-11T11:39:05.364Z,26.84
2023-08-11T11:41:33.830Z,25.96
2023-08-11T11:44:01.778Z,26.58
2023-08-11T11:46:33.585Z,26.93
2023-08-11T11:49:09.473Z,27.75
2023-08-11T11:51:46.074Z,28.05
2023-08-11T11:54:14.130Z,28.55
2023-08-11T11:56:50.426Z,28.54
2023-08-11T11:59:27.779Z,28.30
2023-08-11T12:02:00.771Z,28.03
2023-08-11T12:04:28.995Z,27.96
2023-08-11T12:06:58.448Z,27.05
2023-08-11T12:09:26.488Z,27.25
2023-08-11T12:11:55.686Z,27.81
2023-08-11T12:14:27.601Z,27.19
2023-08-11T12:16:55.573Z,26.43
2023-08-11T12:19:25.461Z,27.18
2023-08-11T12:21:53.405Z,27.58
2023-08-11T12:24:23.544Z,27.53
2023-08-11T12:26:51.575Z,26.38
2023-08-11T12:29:19.686Z,25.95
2023-08-11T12:31:48.078Z,26.03
2023-08-11T12:34:15.945Z,26.81
2023-08-11T12:36:44.194Z,27.68
2023-08-11T12:39:12.131Z,28.64
2023-08-11T12:41:41.421Z,27.89
2023-08-11T12:44:09.436Z,27.78
2023-08-11T12:46:38.446Z,28.41
2023-08-11T12:49:06.519Z,28.61
2023-08-11T12:51:34.682Z,27.98
2023-08-11T12:54:02.736Z,28.79
2023-08-11T12:56:30.809Z,29.12
2023-08-11T12:59:00.211Z,29.13
2023-08-11T13:01:28.251Z,27.91
2023-08-11T13:03:56.747Z,27.39
2023-08-11T13:06:24.911Z,27.47
2023-08-11T13:08:53.126Z,28.32
2023-08-11T13:11:21.032Z,27.29
2023-08-11T13:13:48.986Z,28.32
2023-08-11T13:16:18.382Z,28.10
2023-08-11T13:18:46.446Z,29.29
2023-08-11T13:21:14.425Z,29.17
2023-08-11T13:23:42.303Z,29.18
2023-08-11T13:26:10.336Z,28.81
2023-08-11T13:28:38.362Z,27.81
2023-08-11T13:31:06.486Z,28.34
2023-08-11T13:33:35.850Z,28.51
2023-08-11T13:36:04.994Z,29.45
2023-08-11T13:38:33.395Z,28.79
2023-08-11T13:41:02.608Z,29.37
2023-08-11T13:43:30.664Z,27.79
2023-08-11T13:45:59.060Z,29.39
2023-08-11T13:48:28.357Z,28.06
2023-08-11T13:50:59.910Z,28.90
2023-08-11T13:53:27.874Z,28.56
2023-08-11T13:55:55.825Z,28.32
2023-08-11T13:58:23.996Z,29.28
2023-08-11T14:00:52.557Z,29.69
2023-08-11T14:03:20.586Z,29.01
2023-08-11T14:05:48.935Z,30.86
2023-08-11T14:08:18.312Z,30.71
2023-08-11T14:10:46.290Z,30.70
2023-08-11T14:13:14.148Z,29.74
2023-08-11T14:15:42.226Z,29.71
2023-08-11T14:18:10.226Z,30.96
2023-08-11T14:20:38.813Z,32.08
2023-08-11T14:23:06.685Z,30.79
2023-08-11T14:25:35.896Z,31.46
2023-08-11T14:28:03.952Z,32.24
2023-08-11T14:30:32.004Z,31.92
2023-08-11T14:33:00.112Z,29.50
2023-08-11T14:35:28.261Z,31.36
2023-08-11T14:37:56.343Z,31.01
2023-08-11T14:40:24.257Z,30.53
2023-08-11T14:42:53.553Z,31.40
2023-08-11T14:45:21.455Z,30.80
2023-08-11T14:47:49.382Z,29.61
2023-08-11T14:50:17.510Z,30.77
2023-08-11T14:52:45.494Z,30.18
2023-08-11T14:55:13.533Z,30.76
2023-08-11T14:57:41.545Z,31.25
2023-08-11T15:00:12.194Z,31.88
2023-08-11T15:02:40.245Z,32.62
2023-08-11T15:05:09.100Z,31.07
2023-08-11T15:07:37.256Z,31.11
2023-08-11T15:10:05.598Z,30.20
2023-08-11T15:12:33.595Z,29.51
2023-08-11T15:15:01.569Z,29.06
2023-08-11T15:17:31.514Z,31.35
2023-08-11T15:19:59.477Z,30.69
2023-08-11T15:22:27.456Z,30.47
2023-08-11T15:24:55.389Z,32.45
2023-08-11T15:27:23.400Z,31.51
2023-08-11T15:29:51.334Z,29.28
2023-08-11T15:32:19.273Z,29.65
2023-08-11T15:34:48.705Z,30.08
2023-08-11T15:37:16.673Z,30.36
2023-08-11T15:39:45.152Z,31.98
2023-08-11T15:42:13.166Z,32.08
2023-08-11T15:44:41.156Z,31.53
2023-08-11T15:47:10.159Z,31.23
2023-08-11T15:49:38.181Z,31.04
2023-08-11T15:52:08.057Z,30.29
2023-08-11T15:54:36.431Z,29.40
2023-08-11T15:57:04.478Z,28.47
2023-08-11T15:59:32.419Z,29.64
2023-08-11T16:02:09.459Z,28.93
2023-08-11T16:04:38.828Z,28.67
2023-08-11T16:07:08.166Z,28.55
2023-08-11T16:09:36.109Z,28.40
2023-08-11T16:12:04.074Z,28.67
2023-08-11T16:14:33.085Z,27.92
2023-08-11T16:17:02.448Z,27.69
2023-08-11T16:19:30.440Z,28.23
2023-08-11T16:21:58.358Z,27.38
2023-08-11T16:24:27.648Z,27.47
2023-08-11T16:26:55.523Z,27.50
2023-08-11T16:29:23.515Z,27.49
2023-08-11T16:31:51.513Z,27.34
2023-08-11T16:34:19.436Z,28.00
2023-08-11T16:36:47.347Z,27.60
2023-08-11T16:39:15.272Z,27.44
2023-08-11T16:41:44.485Z,28.48
2023-08-11T16:44:12.498Z,27.72
2023-08-11T16:46:40.485Z,27.88
2023-08-11T16:49:09.032Z,28.68
2023-08-11T16:51:36.962Z,28.56
2023-08-11T16:54:05.417Z,29.04
2023-08-11T16:56:33.339Z,27.87
2023-08-11T16:59:02.840Z,27.37
2023-08-11T17:01:30.883Z,27.21
2023-08-11T17:03:59.006Z,27.73
2023-08-11T17:06:27.095Z,27.60
2023-08-11T17:08:55.224Z,27.74
2023-08-11T17:11:23.139Z,27.75
2023-08-11T17:13:51.092Z,27.35
2023-08-11T17:16:20.571Z,26.68
2023-08-11T17:18:51.030Z,26.70
2023-08-11T17:21:20.016Z,26.43
2023-08-11T17:23:48.456Z,26.33
2023-08-11T17:26:16.843Z,26.46
2023-08-11T17:28:44.843Z,26.01
2023-08-11T17:31:12.798Z,25.52
2023-08-11T17:33:42.259Z,25.60
2023-08-11T17:36:10.293Z,25.17
2023-08-11T17:38:38.229Z,24.99
2023-08-11T17:41:06.661Z,24.75
2023-08-11T17:43:34.742Z,24.60
2023-08-11T17:46:02.923Z,24.45
2023-08-11T17:48:30.944Z,24.55
2023-08-11T17:51:00.192Z,24.48
2023-08-11T17:53:28.213Z,24.45
2023-08-11T17:55:56.155Z,24.33
2023-08-11T17:58:24.123Z,24.23
2023-08-11T18:00:52.235Z,24.16
2023-08-11T18:03:20.312Z,24.18
2023-08-11T18:05:48.390Z,24.11
2023-08-11T18:08:17.824Z,23.93
2023-08-11T18:10:45.833Z,23.87
2023-08-11T18:13:13.954Z,23.78
2023-08-11T18:15:41.948Z,23.73
2023-08-11T18:18:10.014Z,23.64
2023-08-11T18:20:38.054Z,23.59
2023-08-11T18:23:06.018Z,23.57
2023-08-11T18:25:36.666Z,23.42
2023-08-11T18:28:05.037Z,23.28
2023-08-11T18:30:32.970Z,23.20
2023-08-11T18:33:01.091Z,23.10
2023-08-11T18:35:29.156Z,22.99
2023-08-11T18:37:57.384Z,22.91
2023-08-11T18:40:26.979Z,22.90
2023-08-11T18:42:56.404Z,22.86
2023-08-11T18:45:24.375Z,22.80
2023-08-11T18:47:54.340Z,22.72
2023-08-11T18:50:22.315Z,22.62
2023-08-11T18:52:51.275Z,22.59
2023-08-11T18:55:19.901Z,22.61
2023-08-11T18:57:47.832Z,22.59
2023-08-11T19:00:18.197Z,22.57
2023-08-11T19:02:46.482Z,22.43
2023-08-11T19:05:14.668Z,22.35
2023-08-11T19:07:42.660Z,22.32
2023-08-11T19:10:11.296Z,22.27
2023-08-11T19:12:39.268Z,22.24
2023-08-11T19:15:08.383Z,22.22
2023-08-11T19:17:37.823Z,22.12
2023-08-11T19:20:06.704Z,22.07
2023-08-11T19:22:34.644Z,21.91
2023-08-11T19:25:02.662Z,21.86
2023-08-11T19:27:31.526Z,21.81
2023-08-11T19:29:59.730Z,21.80
2023-08-11T19:32:27.730Z,21.73
2023-08-11T19:34:57.316Z,21.67
2023-08-11T19:37:25.499Z,21.63
2023-08-11T19:39:53.490Z,21.63
2023-08-11T19:42:21.552Z,21.57
2023-08-11T19:44:49.565Z,21.55
2023-08-11T19:47:17.551Z,21.52
2023-08-11T19:49:45.533Z,21.54
2023-08-11T19:52:15.001Z,21.52
2023-08-11T19:54:43.090Z,21.54
2023-08-11T19:57:11.463Z,21.51
2023-08-11T19:59:39.550Z,21.46
2023-08-11T20:02:07.635Z,21.43
2023-08-11T20:04:35.737Z,21.41
2023-08-11T20:07:04.034Z,21.38
2023-08-11T20:09:36.117Z,21.32
2023-08-11T20:12:05.294Z,21.30
2023-08-11T20:14:33.390Z,21.29
2023-08-11T20:17:02.511Z,21.25
2023-08-11T20:19:30.548Z,21.20
2023-08-11T20:21:58.700Z,21.21
2023-08-11T20:24:26.796Z,21.23
2023-08-11T20:26:57.758Z,21.25
2023-08-11T20:29:26.004Z,21.22
2023-08-11T20:31:57.048Z,21.20
2023-08-11T20:34:27.406Z,21.17
2023-08-11T20:36:56.580Z,21.18
2023-08-11T20:39:24.637Z,21.16
2023-08-11T20:41:55.711Z,21.17
2023-08-11T20:44:25.473Z,21.16
2023-08-11T20:46:54.702Z,21.11
2023-08-11T20:49:22.901Z,21.05
2023-08-11T20:51:51.806Z,21.03
2023-08-11T20:54:19.807Z,21.01
2023-08-11T20:56:47.771Z,20.92
2023-08-11T20:59:15.747Z,20.85
2023-08-11T21:01:45.121Z,20.76
2023-08-11T21:04:13.222Z,20.76
2023-08-11T21:06:41.239Z,20.74
2023-08-11T21:09:09.291Z,20.68
2023-08-11T21:11:37.268Z,20.70
2023-08-11T21:14:08.763Z,20.65
2023-08-11T21:16:36.955Z,20.63
2023-08-11T21:19:06.655Z,20.60
2023-08-11T21:21:36.720Z,20.60
2023-08-11T21:24:04.873Z,20.62
2023-08-11T21:26:32.816Z,20.68
2023-08-11T21:29:00.822Z,20.68
2023-08-11T21:31:28.858Z,20.65
2023-08-11T21:34:06.275Z,20.70
2023-08-11T21:36:35.892Z,20.65
2023-08-11T21:39:06.356Z,20.66
2023-08-11T21:41:34.776Z,20.59
2023-08-11T21:44:03.694Z,20.56
2023-08-11T21:46:31.886Z,20.56
2023-08-11T21:49:00.116Z,20.66
2023-08-11T21:51:28.260Z,20.62
2023-08-11T21:53:57.643Z,20.57
2023-08-11T21:56:25.912Z,20.52
2023-08-11T21:58:53.987Z,20.59
2023-08-11T22:01:22.096Z,20.64
2023-08-11T22:03:50.215Z,20.70
2023-08-11T22:06:18.218Z,20.58
2023-08-11T22:08:46.245Z,20.54
2023-08-11T22:11:30.343Z,20.52
2023-08-11T22:14:03.699Z,20.47
2023-08-11T22:16:31.663Z,20.44
2023-08-11T22:19:00.022Z,20.38
2023-08-11T22:21:27.982Z,20.40
2023-08-11T22:23:56.005Z,20.34
2023-08-11T22:26:25.566Z,20.28
2023-08-11T22:28:53.584Z,20.20
2023-08-11T22:31:21.504Z,20.16
2023-08-11T22:33:49.623Z,20.13
2023-08-11T22:36:17.626Z,20.03
2023-08-11T22:38:45.823Z,20.00
2023-08-11T22:41:13.949Z,19.99
2023-08-11T22:43:43.316Z,19.96
2023-08-11T22:46:11.346Z,19.92
2023-08-11T22:48:39.606Z,19.91
2023-08-11T22:51:07.918Z,19.88
2023-08-11T22:53:35.874Z,19.87
2023-08-11T22:56:03.874Z,19.83
2023-08-11T22:58:32.190Z,19.81
2023-08-11T23:01:02.503Z,19.76
2023-08-11T23:03:30.594Z,19.82
2023-08-11T23:05:58.738Z,19.74
2023-08-11T23:08:26.938Z,19.76
2023-08-11T23:10:55.053Z,19.63
2023-08-11T23:13:23.205Z,19.63
2023-08-11T23:15:51.482Z,19.48
2023-08-11T23:18:21.025Z,19.35
2023-08-11T23:20:49.541Z,19.28
2023-08-11T23:23:17.514Z,19.29
2023-08-11T23:25:45.556Z,19.26
2023-08-11T23:28:13.821Z,19.28
2023-08-11T23:30:41.814Z,19.31
2023-08-11T23:33:09.862Z,19.33
2023-08-11T23:35:39.807Z,19.26
2023-08-11T23:38:07.962Z,19.30
2023-08-11T23:40:36.134Z,19.25
2023-08-11T23:43:04.983Z,19.26
2023-08-11T23:45:33.451Z,19.27
2023-08-11T23:48:01.729Z,19.17
2023-08-11T23:50:29.762Z,19.24
2023-08-11T23:52:59.309Z,19.31
2023-08-11T23:55:28.046Z,19.19
2023-08-11T23:57:56.169Z,19.10
